sensor_id;sensor_type;location;lat;lon;timestamp;P1;durP1;ratioP1;P2;durP2;ratioP2
78875;SDS011;68253;52.506;5.486;2023-08-20T00:00:52;7.93;;;1.50;;
78875;SDS011;68253;52.506;5.486;2023-08-20T00:03:18;5.78;;;1.15;;
78875;SDS011;68253;52.506;5.486;2023-08-20T00:05:44;7.50;;;1.38;;
78875;SDS011;68253;52.506;5.486;2023-08-20T00:08:11;8.65;;;1.60;;
78875;SDS011;68253;52.506;5.486;2023-08-20T00:10:37;5.93;;;1.15;;
78875;SDS011;68253;52.506;5.486;2023-08-20T00:13:03;5.50;;;1.30;;
78875;SDS011;68253;52.506;5.486;2023-08-20T00:15:30;6.13;;;1.23;;
78875;SDS011;68253;52.506;5.486;2023-08-20T00:17:56;5.78;;;1.10;;
78875;SDS011;68253;52.506;5.486;2023-08-20T00:20:23;5.22;;;1.38;;
78875;SDS011;68253;52.506;5.486;2023-08-20T00:22:50;6.03;;;1.45;;
78875;SDS011;68253;52.506;5.486;2023-08-20T00:25:16;6.78;;;1.40;;
78875;SDS011;68253;52.506;5.486;2023-08-20T00:27:43;7.28;;;1.65;;
78875;SDS011;68253;52.506;5.486;2023-08-20T00:30:10;5.93;;;1.20;;
78875;SDS011;68253;52.506;5.486;2023-08-20T00:32:36;7.13;;;1.40;;
78875;SDS011;68253;52.506;5.486;2023-08-20T00:35:03;5.63;;;1.52;;
78875;SDS011;68253;52.506;5.486;2023-08-20T00:37:30;6.88;;;1.27;;
78875;SDS011;68253;52.506;5.486;2023-08-20T00:39:56;5.50;;;1.27;;
78875;SDS011;68253;52.506;5.486;2023-08-20T00:42:25;6.60;;;1.45;;
78875;SDS011;68253;52.506;5.486;2023-08-20T00:44:52;4.95;;;1.30;;
78875;SDS011;68253;52.506;5.486;2023-08-20T00:47:20;6.63;;;1.52;;
78875;SDS011;68253;52.506;5.486;2023-08-20T00:49:46;7.63;;;1.50;;
78875;SDS011;68253;52.506;5.486;2023-08-20T00:52:13;9.48;;;1.90;;
78875;SDS011;68253;52.506;5.486;2023-08-20T00:54:42;7.20;;;1.60;;
78875;SDS011;68253;52.506;5.486;2023-08-20T00:57:13;6.13;;;1.38;;
78875;SDS011;68253;52.506;5.486;2023-08-20T00:59:41;11.20;;;1.52;;
78875;SDS011;68253;52.506;5.486;2023-08-20T01:02:08;8.23;;;1.52;;
78875;SDS011;68253;52.506;5.486;2023-08-20T01:04:35;7.30;;;1.40;;
78875;SDS011;68253;52.506;5.486;2023-08-20T01:07:04;7.75;;;1.60;;
78875;SDS011;68253;52.506;5.486;2023-08-20T01:12:18;6.78;;;1.52;;
78875;SDS011;68253;52.506;5.486;2023-08-20T01:14:45;8.10;;;1.50;;
78875;SDS011;68253;52.506;5.486;2023-08-20T01:17:11;6.45;;;1.30;;
78875;SDS011;68253;52.506;5.486;2023-08-20T01:19:38;7.32;;;1.50;;
78875;SDS011;68253;52.506;5.486;2023-08-20T01:30:26;6.07;;;1.50;;
78875;SDS011;68253;52.506;5.486;2023-08-20T01:32:53;5.60;;;1.55;;
78875;SDS011;68253;52.506;5.486;2023-08-20T01:35:20;7.47;;;1.60;;
78875;SDS011;68253;52.506;5.486;2023-08-20T01:38:01;5.72;;;1.60;;
78875;SDS011;68253;52.506;5.486;2023-08-20T01:40:29;7.82;;;1.58;;
78875;SDS011;68253;52.506;5.486;2023-08-20T01:42:56;6.05;;;1.50;;
78875;SDS011;68253;52.506;5.486;2023-08-20T01:45:23;5.82;;;1.58;;
78875;SDS011;68253;52.506;5.486;2023-08-20T01:47:49;6.68;;;1.60;;
78875;SDS011;68253;52.506;5.486;2023-08-20T01:50:15;10.07;;;1.90;;
78875;SDS011;68253;52.506;5.486;2023-08-20T01:52:42;6.85;;;1.55;;
78875;SDS011;68253;52.506;5.486;2023-08-20T01:55:08;6.93;;;1.52;;
78875;SDS011;68253;52.506;5.486;2023-08-20T01:57:34;10.05;;;2.03;;
78875;SDS011;68253;52.506;5.486;2023-08-20T02:00:00;6.88;;;1.70;;
78875;SDS011;68253;52.506;5.486;2023-08-20T02:02:26;7.43;;;1.88;;
78875;SDS011;68253;52.506;5.486;2023-08-20T02:04:53;5.90;;;1.50;;
78875;SDS011;68253;52.506;5.486;2023-08-20T02:07:19;9.90;;;2.50;;
78875;SDS011;68253;52.506;5.486;2023-08-20T02:09:45;7.43;;;1.90;;
78875;SDS011;68253;52.506;5.486;2023-08-20T02:12:12;9.75;;;2.17;;
78875;SDS011;68253;52.506;5.486;2023-08-20T02:14:38;7.70;;;1.67;;
78875;SDS011;68253;52.506;5.486;2023-08-20T02:17:05;9.40;;;2.08;;
78875;SDS011;68253;52.506;5.486;2023-08-20T02:19:32;7.60;;;1.80;;
78875;SDS011;68253;52.506;5.486;2023-08-20T02:21:59;6.15;;;1.60;;
78875;SDS011;68253;52.506;5.486;2023-08-20T02:24:25;8.77;;;2.15;;
78875;SDS011;68253;52.506;5.486;2023-08-20T02:26:51;6.88;;;1.70;;
78875;SDS011;68253;52.506;5.486;2023-08-20T02:29:18;6.75;;;1.70;;
78875;SDS011;68253;52.506;5.486;2023-08-20T02:31:44;6.82;;;1.92;;
78875;SDS011;68253;52.506;5.486;2023-08-20T02:34:10;8.15;;;1.60;;
78875;SDS011;68253;52.506;5.486;2023-08-20T02:36:36;8.75;;;1.80;;
78875;SDS011;68253;52.506;5.486;2023-08-20T02:39:03;7.05;;;1.75;;
78875;SDS011;68253;52.506;5.486;2023-08-20T02:41:34;5.60;;;1.50;;
78875;SDS011;68253;52.506;5.486;2023-08-20T02:44:04;6.35;;;1.45;;
78875;SDS011;68253;52.506;5.486;2023-08-20T02:46:31;7.90;;;1.50;;
78875;SDS011;68253;52.506;5.486;2023-08-20T02:48:57;6.95;;;1.42;;
78875;SDS011;68253;52.506;5.486;2023-08-20T02:51:23;5.43;;;1.20;;
78875;SDS011;68253;52.506;5.486;2023-08-20T02:53:49;5.10;;;1.20;;
78875;SDS011;68253;52.506;5.486;2023-08-20T02:56:15;6.55;;;1.63;;
78875;SDS011;68253;52.506;5.486;2023-08-20T02:58:42;6.32;;;1.58;;
78875;SDS011;68253;52.506;5.486;2023-08-20T03:01:17;7.55;;;1.50;;
78875;SDS011;68253;52.506;5.486;2023-08-20T03:03:44;5.57;;;1.40;;
78875;SDS011;68253;52.506;5.486;2023-08-20T03:06:10;6.65;;;1.50;;
78875;SDS011;68253;52.506;5.486;2023-08-20T03:08:36;8.02;;;1.75;;
78875;SDS011;68253;52.506;5.486;2023-08-20T03:11:02;7.30;;;1.40;;
78875;SDS011;68253;52.506;5.486;2023-08-20T03:13:29;6.30;;;1.42;;
78875;SDS011;68253;52.506;5.486;2023-08-20T03:15:55;7.07;;;1.60;;
78875;SDS011;68253;52.506;5.486;2023-08-20T03:18:21;8.00;;;1.60;;
78875;SDS011;68253;52.506;5.486;2023-08-20T03:20:47;9.15;;;1.73;;
78875;SDS011;68253;52.506;5.486;2023-08-20T03:23:13;6.72;;;1.40;;
78875;SDS011;68253;52.506;5.486;2023-08-20T03:25:40;8.18;;;1.75;;
78875;SDS011;68253;52.506;5.486;2023-08-20T03:28:06;7.68;;;1.58;;
78875;SDS011;68253;52.506;5.486;2023-08-20T03:30:32;7.20;;;1.48;;
78875;SDS011;68253;52.506;5.486;2023-08-20T03:32:59;7.53;;;1.35;;
78875;SDS011;68253;52.506;5.486;2023-08-20T03:35:26;7.88;;;1.50;;
78875;SDS011;68253;52.506;5.486;2023-08-20T03:37:52;5.82;;;1.38;;
78875;SDS011;68253;52.506;5.486;2023-08-20T03:40:19;5.30;;;1.52;;
78875;SDS011;68253;52.506;5.486;2023-08-20T03:42:45;7.60;;;1.70;;
78875;SDS011;68253;52.506;5.486;2023-08-20T03:45:11;6.85;;;1.40;;
78875;SDS011;68253;52.506;5.486;2023-08-20T03:47:38;7.53;;;1.88;;
78875;SDS011;68253;52.506;5.486;2023-08-20T03:50:04;5.05;;;1.38;;
78875;SDS011;68253;52.506;5.486;2023-08-20T03:52:31;7.32;;;1.60;;
78875;SDS011;68253;52.506;5.486;2023-08-20T03:54:57;4.43;;;1.42;;
78875;SDS011;68253;52.506;5.486;2023-08-20T03:57:23;7.18;;;1.70;;
78875;SDS011;68253;52.506;5.486;2023-08-20T03:59:50;6.15;;;1.70;;
78875;SDS011;68253;52.506;5.486;2023-08-20T04:02:16;8.65;;;1.60;;
78875;SDS011;68253;52.506;5.486;2023-08-20T04:04:43;6.25;;;1.45;;
78875;SDS011;68253;52.506;5.486;2023-08-20T04:07:09;7.82;;;1.65;;
78875;SDS011;68253;52.506;5.486;2023-08-20T04:09:38;6.80;;;1.60;;
78875;SDS011;68253;52.506;5.486;2023-08-20T04:12:05;5.38;;;1.45;;
78875;SDS011;68253;52.506;5.486;2023-08-20T04:14:32;7.68;;;1.67;;
78875;SDS011;68253;52.506;5.486;2023-08-20T04:16:58;6.55;;;1.80;;
78875;SDS011;68253;52.506;5.486;2023-08-20T04:19:24;7.22;;;1.50;;
78875;SDS011;68253;52.506;5.486;2023-08-20T04:21:50;7.65;;;1.63;;
78875;SDS011;68253;52.506;5.486;2023-08-20T04:24:17;6.35;;;1.60;;
78875;SDS011;68253;52.506;5.486;2023-08-20T04:26:43;6.75;;;1.30;;
78875;SDS011;68253;52.506;5.486;2023-08-20T04:29:10;5.95;;;1.30;;
78875;SDS011;68253;52.506;5.486;2023-08-20T04:31:36;7.53;;;1.52;;
78875;SDS011;68253;52.506;5.486;2023-08-20T04:34:06;4.97;;;1.40;;
78875;SDS011;68253;52.506;5.486;2023-08-20T04:36:40;6.78;;;1.27;;
78875;SDS011;68253;52.506;5.486;2023-08-20T04:39:06;6.32;;;1.40;;
78875;SDS011;68253;52.506;5.486;2023-08-20T04:41:35;7.00;;;1.70;;
78875;SDS011;68253;52.506;5.486;2023-08-20T04:44:02;6.05;;;1.40;;
78875;SDS011;68253;52.506;5.486;2023-08-20T04:46:29;8.15;;;1.45;;
78875;SDS011;68253;52.506;5.486;2023-08-20T04:48:55;9.70;;;1.45;;
78875;SDS011;68253;52.506;5.486;2023-08-20T04:51:21;6.13;;;1.20;;
78875;SDS011;68253;52.506;5.486;2023-08-20T04:53:48;7.82;;;1.40;;
78875;SDS011;68253;52.506;5.486;2023-08-20T04:56:14;6.03;;;1.20;;
78875;SDS011;68253;52.506;5.486;2023-08-20T04:58:40;9.45;;;1.52;;
78875;SDS011;68253;52.506;5.486;2023-08-20T05:01:06;7.75;;;1.30;;
78875;SDS011;68253;52.506;5.486;2023-08-20T05:03:35;7.03;;;1.30;;
78875;SDS011;68253;52.506;5.486;2023-08-20T05:06:01;6.78;;;1.30;;
78875;SDS011;68253;52.506;5.486;2023-08-20T05:08:28;4.93;;;1.15;;
78875;SDS011;68253;52.506;5.486;2023-08-20T05:10:54;6.47;;;1.58;;
78875;SDS011;68253;52.506;5.486;2023-08-20T05:13:20;5.03;;;1.00;;
78875;SDS011;68253;52.506;5.486;2023-08-20T05:15:49;7.30;;;1.40;;
78875;SDS011;68253;52.506;5.486;2023-08-20T05:18:15;7.13;;;1.23;;
78875;SDS011;68253;52.506;5.486;2023-08-20T05:20:41;5.82;;;1.23;;
78875;SDS011;68253;52.506;5.486;2023-08-20T05:23:07;7.88;;;1.40;;
78875;SDS011;68253;52.506;5.486;2023-08-20T05:25:33;7.10;;;1.30;;
78875;SDS011;68253;52.506;5.486;2023-08-20T05:27:59;8.05;;;1.50;;
78875;SDS011;68253;52.506;5.486;2023-08-20T05:30:27;6.38;;;1.10;;
78875;SDS011;68253;52.506;5.486;2023-08-20T05:32:54;6.70;;;1.30;;
78875;SDS011;68253;52.506;5.486;2023-08-20T05:35:21;5.40;;;0.90;;
78875;SDS011;68253;52.506;5.486;2023-08-20T05:37:49;7.22;;;1.08;;
78875;SDS011;68253;52.506;5.486;2023-08-20T05:40:15;6.47;;;1.20;;
78875;SDS011;68253;52.506;5.486;2023-08-20T05:42:41;8.32;;;1.35;;
78875;SDS011;68253;52.506;5.486;2023-08-20T05:45:08;5.75;;;1.25;;
78875;SDS011;68253;52.506;5.486;2023-08-20T05:47:34;7.95;;;1.30;;
78875;SDS011;68253;52.506;5.486;2023-08-20T05:50:00;5.93;;;1.02;;
78875;SDS011;68253;52.506;5.486;2023-08-20T05:52:26;6.32;;;1.20;;
78875;SDS011;68253;52.506;5.486;2023-08-20T05:54:53;6.38;;;1.20;;
78875;SDS011;68253;52.506;5.486;2023-08-20T05:57:20;7.43;;;1.58;;
78875;SDS011;68253;52.506;5.486;2023-08-20T05:59:46;5.25;;;1.00;;
78875;SDS011;68253;52.506;5.486;2023-08-20T06:02:16;6.80;;;1.38;;
78875;SDS011;68253;52.506;5.486;2023-08-20T06:04:45;7.78;;;1.40;;
78875;SDS011;68253;52.506;5.486;2023-08-20T06:07:11;6.20;;;1.50;;
78875;SDS011;68253;52.506;5.486;2023-08-20T06:09:38;7.15;;;1.50;;
78875;SDS011;68253;52.506;5.486;2023-08-20T06:12:04;8.82;;;1.50;;
78875;SDS011;68253;52.506;5.486;2023-08-20T06:14:30;8.48;;;1.50;;
78875;SDS011;68253;52.506;5.486;2023-08-20T06:16:56;8.07;;;1.42;;
78875;SDS011;68253;52.506;5.486;2023-08-20T06:19:23;6.47;;;1.15;;
78875;SDS011;68253;52.506;5.486;2023-08-20T06:21:50;5.88;;;1.30;;
78875;SDS011;68253;52.506;5.486;2023-08-20T06:24:16;10.65;;;1.60;;
78875;SDS011;68253;52.506;5.486;2023-08-20T06:26:42;9.57;;;1.40;;
78875;SDS011;68253;52.506;5.486;2023-08-20T06:29:10;9.05;;;1.63;;
78875;SDS011;68253;52.506;5.486;2023-08-20T06:31:36;7.60;;;1.50;;
78875;SDS011;68253;52.506;5.486;2023-08-20T06:34:02;9.68;;;1.50;;
78875;SDS011;68253;52.506;5.486;2023-08-20T06:36:29;8.82;;;1.50;;
78875;SDS011;68253;52.506;5.486;2023-08-20T06:38:55;8.02;;;1.42;;
78875;SDS011;68253;52.506;5.486;2023-08-20T06:41:22;9.77;;;1.40;;
78875;SDS011;68253;52.506;5.486;2023-08-20T06:43:48;11.98;;;1.65;;
78875;SDS011;68253;52.506;5.486;2023-08-20T06:46:14;8.23;;;1.50;;
78875;SDS011;68253;52.506;5.486;2023-08-20T06:48:40;8.70;;;1.95;;
78875;SDS011;68253;52.506;5.486;2023-08-20T06:51:19;9.48;;;1.40;;
78875;SDS011;68253;52.506;5.486;2023-08-20T06:53:47;6.05;;;1.10;;
78875;SDS011;68253;52.506;5.486;2023-08-20T06:56:13;6.40;;;1.13;;
78875;SDS011;68253;52.506;5.486;2023-08-20T06:58:40;7.10;;;1.20;;
78875;SDS011;68253;52.506;5.486;2023-08-20T07:01:08;7.03;;;1.30;;
78875;SDS011;68253;52.506;5.486;2023-08-20T07:03:35;8.95;;;1.38;;
78875;SDS011;68253;52.506;5.486;2023-08-20T07:06:03;8.02;;;1.40;;
78875;SDS011;68253;52.506;5.486;2023-08-20T07:08:29;10.00;;;1.40;;
78875;SDS011;68253;52.506;5.486;2023-08-20T07:10:55;9.18;;;1.13;;
78875;SDS011;68253;52.506;5.486;2023-08-20T07:13:22;8.20;;;1.20;;
78875;SDS011;68253;52.506;5.486;2023-08-20T07:15:48;7.80;;;1.13;;
78875;SDS011;68253;52.506;5.486;2023-08-20T07:18:15;10.13;;;1.55;;
78875;SDS011;68253;52.506;5.486;2023-08-20T07:20:42;9.50;;;1.30;;
78875;SDS011;68253;52.506;5.486;2023-08-20T07:23:09;8.40;;;1.48;;
78875;SDS011;68253;52.506;5.486;2023-08-20T07:25:39;10.35;;;1.50;;
78875;SDS011;68253;52.506;5.486;2023-08-20T07:28:07;10.25;;;1.50;;
78875;SDS011;68253;52.506;5.486;2023-08-20T07:30:34;6.57;;;1.17;;
78875;SDS011;68253;52.506;5.486;2023-08-20T07:33:01;8.75;;;1.20;;
78875;SDS011;68253;52.506;5.486;2023-08-20T07:35:27;11.38;;;1.38;;
78875;SDS011;68253;52.506;5.486;2023-08-20T07:37:54;8.02;;;1.20;;
78875;SDS011;68253;52.506;5.486;2023-08-20T07:40:20;8.52;;;1.17;;
78875;SDS011;68253;52.506;5.486;2023-08-20T07:42:46;6.10;;;1.05;;
78875;SDS011;68253;52.506;5.486;2023-08-20T07:45:12;7.15;;;1.15;;
78875;SDS011;68253;52.506;5.486;2023-08-20T07:47:38;7.70;;;1.27;;
78875;SDS011;68253;52.506;5.486;2023-08-20T07:50:06;8.38;;;1.20;;
78875;SDS011;68253;52.506;5.486;2023-08-20T07:52:32;10.02;;;1.60;;
78875;SDS011;68253;52.506;5.486;2023-08-20T07:54:58;8.50;;;1.10;;
78875;SDS011;68253;52.506;5.486;2023-08-20T07:57:24;8.30;;;1.00;;
78875;SDS011;68253;52.506;5.486;2023-08-20T07:59:51;6.60;;;1.08;;
78875;SDS011;68253;52.506;5.486;2023-08-20T08:02:18;5.78;;;0.93;;
78875;SDS011;68253;52.506;5.486;2023-08-20T08:04:44;5.80;;;0.90;;
78875;SDS011;68253;52.506;5.486;2023-08-20T08:07:10;7.35;;;1.30;;
78875;SDS011;68253;52.506;5.486;2023-08-20T08:09:37;9.20;;;1.05;;
78875;SDS011;68253;52.506;5.486;2023-08-20T08:12:03;7.57;;;1.00;;
78875;SDS011;68253;52.506;5.486;2023-08-20T08:14:30;6.45;;;1.00;;
78875;SDS011;68253;52.506;5.486;2023-08-20T08:16:56;9.93;;;0.98;;
78875;SDS011;68253;52.506;5.486;2023-08-20T08:19:22;8.55;;;1.15;;
78875;SDS011;68253;52.506;5.486;2023-08-20T08:21:48;9.88;;;1.20;;
78875;SDS011;68253;52.506;5.486;2023-08-20T08:24:15;10.45;;;1.10;;
78875;SDS011;68253;52.506;5.486;2023-08-20T08:26:41;7.55;;;0.95;;
78875;SDS011;68253;52.506;5.486;2023-08-20T08:29:07;9.98;;;1.20;;
78875;SDS011;68253;52.506;5.486;2023-08-20T08:31:34;7.03;;;0.98;;
78875;SDS011;68253;52.506;5.486;2023-08-20T08:34:01;6.85;;;0.60;;
78875;SDS011;68253;52.506;5.486;2023-08-20T08:36:28;8.30;;;1.25;;
78875;SDS011;68253;52.506;5.486;2023-08-20T08:38:54;12.18;;;1.55;;
78875;SDS011;68253;52.506;5.486;2023-08-20T08:41:21;9.68;;;1.23;;
78875;SDS011;68253;52.506;5.486;2023-08-20T08:43:50;5.35;;;0.80;;
78875;SDS011;68253;52.506;5.486;2023-08-20T08:46:17;10.30;;;1.30;;
78875;SDS011;68253;52.506;5.486;2023-08-20T08:48:44;7.88;;;1.20;;
78875;SDS011;68253;52.506;5.486;2023-08-20T08:51:12;10.63;;;1.27;;
78875;SDS011;68253;52.506;5.486;2023-08-20T08:53:39;7.45;;;1.05;;
78875;SDS011;68253;52.506;5.486;2023-08-20T08:56:08;9.98;;;1.35;;
78875;SDS011;68253;52.506;5.486;2023-08-20T08:58:34;8.55;;;1.30;;
78875;SDS011;68253;52.506;5.486;2023-08-20T09:01:00;11.57;;;1.38;;
78875;SDS011;68253;52.506;5.486;2023-08-20T09:03:26;6.63;;;0.85;;
78875;SDS011;68253;52.506;5.486;2023-08-20T09:05:57;7.53;;;1.02;;
78875;SDS011;68253;52.506;5.486;2023-08-20T09:08:27;9.48;;;1.00;;
78875;SDS011;68253;52.506;5.486;2023-08-20T09:10:55;8.88;;;0.95;;
78875;SDS011;68253;52.506;5.486;2023-08-20T09:13:23;7.80;;;0.95;;
78875;SDS011;68253;52.506;5.486;2023-08-20T09:15:53;7.13;;;0.90;;
78875;SDS011;68253;52.506;5.486;2023-08-20T09:18:20;8.57;;;1.45;;
78875;SDS011;68253;52.506;5.486;2023-08-20T09:20:49;10.88;;;1.17;;
78875;SDS011;68253;52.506;5.486;2023-08-20T09:23:16;6.03;;;0.82;;
78875;SDS011;68253;52.506;5.486;2023-08-20T09:25:42;7.45;;;1.02;;
78875;SDS011;68253;52.506;5.486;2023-08-20T09:28:10;8.68;;;1.30;;
78875;SDS011;68253;52.506;5.486;2023-08-20T09:30:36;5.78;;;0.85;;
78875;SDS011;68253;52.506;5.486;2023-08-20T09:33:11;6.63;;;0.95;;
78875;SDS011;68253;52.506;5.486;2023-08-20T09:35:49;6.68;;;0.90;;
78875;SDS011;68253;52.506;5.486;2023-08-20T09:38:18;7.45;;;1.20;;
78875;SDS011;68253;52.506;5.486;2023-08-20T09:40:49;7.85;;;1.10;;
78875;SDS011;68253;52.506;5.486;2023-08-20T09:43:18;8.05;;;1.50;;
78875;SDS011;68253;52.506;5.486;2023-08-20T09:45:46;6.10;;;0.90;;
78875;SDS011;68253;52.506;5.486;2023-08-20T09:48:13;5.10;;;1.20;;
78875;SDS011;68253;52.506;5.486;2023-08-20T09:50:47;10.32;;;1.10;;
78875;SDS011;68253;52.506;5.486;2023-08-20T09:53:30;9.45;;;1.05;;
78875;SDS011;68253;52.506;5.486;2023-08-20T09:56:03;8.40;;;1.15;;
78875;SDS011;68253;52.506;5.486;2023-08-20T09:58:41;8.43;;;1.27;;
78875;SDS011;68253;52.506;5.486;2023-08-20T10:01:09;8.07;;;1.02;;
78875;SDS011;68253;52.506;5.486;2023-08-20T10:03:35;7.60;;;1.00;;
78875;SDS011;68253;52.506;5.486;2023-08-20T10:06:02;7.30;;;1.10;;
78875;SDS011;68253;52.506;5.486;2023-08-20T10:08:29;8.40;;;1.00;;
78875;SDS011;68253;52.506;5.486;2023-08-20T10:10:56;5.90;;;0.98;;
78875;SDS011;68253;52.506;5.486;2023-08-20T10:13:22;9.65;;;1.23;;
78875;SDS011;68253;52.506;5.486;2023-08-20T10:15:48;9.93;;;1.13;;
78875;SDS011;68253;52.506;5.486;2023-08-20T10:18:18;7.75;;;1.20;;
78875;SDS011;68253;52.506;5.486;2023-08-20T10:20:45;10.27;;;1.40;;
78875;SDS011;68253;52.506;5.486;2023-08-20T10:23:12;8.00;;;1.10;;
78875;SDS011;68253;52.506;5.486;2023-08-20T10:25:41;6.25;;;1.00;;
78875;SDS011;68253;52.506;5.486;2023-08-20T10:28:24;5.40;;;0.90;;
78875;SDS011;68253;52.506;5.486;2023-08-20T10:31:07;8.13;;;1.05;;
78875;SDS011;68253;52.506;5.486;2023-08-20T10:33:35;10.20;;;1.38;;
78875;SDS011;68253;52.506;5.486;2023-08-20T10:36:08;7.32;;;1.20;;
78875;SDS011;68253;52.506;5.486;2023-08-20T10:38:41;10.00;;;1.20;;
78875;SDS011;68253;52.506;5.486;2023-08-20T10:41:10;8.63;;;1.23;;
78875;SDS011;68253;52.506;5.486;2023-08-20T10:43:37;6.25;;;0.98;;
78875;SDS011;68253;52.506;5.486;2023-08-20T10:46:04;8.65;;;1.20;;
78875;SDS011;68253;52.506;5.486;2023-08-20T10:48:47;6.60;;;1.00;;
78875;SDS011;68253;52.506;5.486;2023-08-20T10:51:19;7.57;;;1.10;;
78875;SDS011;68253;52.506;5.486;2023-08-20T10:56:45;6.35;;;1.10;;
78875;SDS011;68253;52.506;5.486;2023-08-20T10:59:17;9.13;;;1.10;;
78875;SDS011;68253;52.506;5.486;2023-08-20T11:01:48;9.57;;;1.17;;
78875;SDS011;68253;52.506;5.486;2023-08-20T11:04:16;5.93;;;0.80;;
78875;SDS011;68253;52.506;5.486;2023-08-20T11:06:43;8.70;;;1.17;;
78875;SDS011;68253;52.506;5.486;2023-08-20T11:09:10;6.38;;;0.90;;
78875;SDS011;68253;52.506;5.486;2023-08-20T11:11:39;8.32;;;1.10;;
78875;SDS011;68253;52.506;5.486;2023-08-20T11:14:07;9.35;;;1.23;;
78875;SDS011;68253;52.506;5.486;2023-08-20T11:16:37;8.10;;;1.20;;
78875;SDS011;68253;52.506;5.486;2023-08-20T11:19:03;8.85;;;1.05;;
78875;SDS011;68253;52.506;5.486;2023-08-20T11:21:34;7.90;;;0.95;;
78875;SDS011;68253;52.506;5.486;2023-08-20T11:24:04;6.65;;;0.80;;
78875;SDS011;68253;52.506;5.486;2023-08-20T11:26:34;8.75;;;0.90;;
78875;SDS011;68253;52.506;5.486;2023-08-20T11:29:05;8.23;;;1.05;;
78875;SDS011;68253;52.506;5.486;2023-08-20T11:31:35;8.93;;;1.05;;
78875;SDS011;68253;52.506;5.486;2023-08-20T11:34:02;7.25;;;0.90;;
78875;SDS011;68253;52.506;5.486;2023-08-20T11:36:29;5.78;;;0.95;;
78875;SDS011;68253;52.506;5.486;2023-08-20T11:38:55;6.93;;;0.90;;
78875;SDS011;68253;52.506;5.486;2023-08-20T11:41:22;4.55;;;0.80;;
78875;SDS011;68253;52.506;5.486;2023-08-20T11:43:49;8.73;;;0.90;;
78875;SDS011;68253;52.506;5.486;2023-08-20T11:46:18;5.63;;;0.80;;
78875;SDS011;68253;52.506;5.486;2023-08-20T11:51:41;6.07;;;0.77;;
78875;SDS011;68253;52.506;5.486;2023-08-20T11:54:11;7.20;;;1.05;;
78875;SDS011;68253;52.506;5.486;2023-08-20T11:56:42;6.22;;;0.90;;
78875;SDS011;68253;52.506;5.486;2023-08-20T11:59:10;6.03;;;1.00;;
78875;SDS011;68253;52.506;5.486;2023-08-20T12:01:37;8.77;;;1.35;;
78875;SDS011;68253;52.506;5.486;2023-08-20T12:04:04;6.97;;;1.08;;
78875;SDS011;68253;52.506;5.486;2023-08-20T12:06:31;8.60;;;0.95;;
78875;SDS011;68253;52.506;5.486;2023-08-20T12:09:00;4.15;;;0.80;;
78875;SDS011;68253;52.506;5.486;2023-08-20T12:11:27;5.35;;;0.80;;
78875;SDS011;68253;52.506;5.486;2023-08-20T12:13:54;6.40;;;1.00;;
78875;SDS011;68253;52.506;5.486;2023-08-20T12:16:22;7.35;;;0.90;;
78875;SDS011;68253;52.506;5.486;2023-08-20T12:18:48;5.93;;;0.90;;
78875;SDS011;68253;52.506;5.486;2023-08-20T12:21:15;5.00;;;0.73;;
78875;SDS011;68253;52.506;5.486;2023-08-20T12:23:41;6.70;;;0.88;;
78875;SDS011;68253;52.506;5.486;2023-08-20T12:26:07;4.93;;;0.80;;
78875;SDS011;68253;52.506;5.486;2023-08-20T12:28:34;4.68;;;0.70;;
78875;SDS011;68253;52.506;5.486;2023-08-20T12:31:00;8.13;;;1.10;;
78875;SDS011;68253;52.506;5.486;2023-08-20T12:33:26;5.70;;;0.90;;
78875;SDS011;68253;52.506;5.486;2023-08-20T12:35:54;6.13;;;0.73;;
78875;SDS011;68253;52.506;5.486;2023-08-20T12:38:21;5.63;;;0.80;;
78875;SDS011;68253;52.506;5.486;2023-08-20T12:40:47;6.78;;;0.98;;
78875;SDS011;68253;52.506;5.486;2023-08-20T12:43:14;4.30;;;0.70;;
78875;SDS011;68253;52.506;5.486;2023-08-20T12:45:40;4.22;;;0.70;;
78875;SDS011;68253;52.506;5.486;2023-08-20T12:48:06;4.88;;;0.65;;
78875;SDS011;68253;52.506;5.486;2023-08-20T12:50:35;4.53;;;0.60;;
78875;SDS011;68253;52.506;5.486;2023-08-20T12:53:01;8.68;;;1.10;;
78875;SDS011;68253;52.506;5.486;2023-08-20T12:55:27;5.80;;;0.77;;
78875;SDS011;68253;52.506;5.486;2023-08-20T12:57:54;3.63;;;0.60;;
78875;SDS011;68253;52.506;5.486;2023-08-20T13:02:52;5.53;;;0.70;;
78875;SDS011;68253;52.506;5.486;2023-08-20T13:05:21;4.93;;;0.90;;
78875;SDS011;68253;52.506;5.486;2023-08-20T13:07:48;6.70;;;1.08;;
78875;SDS011;68253;52.506;5.486;2023-08-20T13:10:15;6.25;;;0.80;;
78875;SDS011;68253;52.506;5.486;2023-08-20T13:12:41;8.50;;;1.00;;
78875;SDS011;68253;52.506;5.486;2023-08-20T13:15:17;6.90;;;1.00;;
78875;SDS011;68253;52.506;5.486;2023-08-20T13:17:45;6.05;;;0.90;;
78875;SDS011;68253;52.506;5.486;2023-08-20T13:20:13;7.00;;;1.00;;
78875;SDS011;68253;52.506;5.486;2023-08-20T13:22:40;6.03;;;0.80;;
78875;SDS011;68253;52.506;5.486;2023-08-20T13:25:07;6.22;;;0.90;;
78875;SDS011;68253;52.506;5.486;2023-08-20T13:27:33;7.60;;;0.80;;
78875;SDS011;68253;52.506;5.486;2023-08-20T13:29:59;4.57;;;0.60;;
78875;SDS011;68253;52.506;5.486;2023-08-20T13:32:26;8.30;;;0.98;;
78875;SDS011;68253;52.506;5.486;2023-08-20T13:34:53;8.43;;;1.20;;
78875;SDS011;68253;52.506;5.486;2023-08-20T13:37:19;6.97;;;0.85;;
78875;SDS011;68253;52.506;5.486;2023-08-20T13:39:45;6.13;;;0.90;;
78875;SDS011;68253;52.506;5.486;2023-08-20T13:42:11;6.03;;;1.00;;
78875;SDS011;68253;52.506;5.486;2023-08-20T13:44:37;7.57;;;0.90;;
78875;SDS011;68253;52.506;5.486;2023-08-20T13:47:03;5.25;;;0.85;;
78875;SDS011;68253;52.506;5.486;2023-08-20T13:49:29;6.68;;;0.80;;
78875;SDS011;68253;52.506;5.486;2023-08-20T13:51:56;7.32;;;0.95;;
78875;SDS011;68253;52.506;5.486;2023-08-20T13:54:22;6.53;;;1.02;;
78875;SDS011;68253;52.506;5.486;2023-08-20T13:56:48;6.82;;;1.08;;
78875;SDS011;68253;52.506;5.486;2023-08-20T13:59:14;6.03;;;0.88;;
78875;SDS011;68253;52.506;5.486;2023-08-20T14:01:40;5.55;;;0.70;;
78875;SDS011;68253;52.506;5.486;2023-08-20T14:04:07;5.97;;;1.00;;
78875;SDS011;68253;52.506;5.486;2023-08-20T14:06:33;7.18;;;1.10;;
78875;SDS011;68253;52.506;5.486;2023-08-20T14:08:59;4.72;;;0.82;;
78875;SDS011;68253;52.506;5.486;2023-08-20T14:11:26;8.70;;;1.17;;
78875;SDS011;68253;52.506;5.486;2023-08-20T14:13:52;6.10;;;0.73;;
78875;SDS011;68253;52.506;5.486;2023-08-20T14:16:18;6.38;;;0.85;;
78875;SDS011;68253;52.506;5.486;2023-08-20T14:18:45;8.23;;;0.98;;
78875;SDS011;68253;52.506;5.486;2023-08-20T14:21:11;6.80;;;0.85;;
78875;SDS011;68253;52.506;5.486;2023-08-20T14:23:37;7.03;;;0.80;;
78875;SDS011;68253;52.506;5.486;2023-08-20T14:26:03;7.45;;;1.10;;
78875;SDS011;68253;52.506;5.486;2023-08-20T14:28:31;7.60;;;1.00;;
78875;SDS011;68253;52.506;5.486;2023-08-20T14:30:57;7.18;;;0.80;;
78875;SDS011;68253;52.506;5.486;2023-08-20T14:33:29;5.55;;;0.80;;
78875;SDS011;68253;52.506;5.486;2023-08-20T14:35:56;6.70;;;0.80;;
78875;SDS011;68253;52.506;5.486;2023-08-20T14:38:22;7.03;;;0.85;;
78875;SDS011;68253;52.506;5.486;2023-08-20T14:40:48;4.20;;;0.70;;
78875;SDS011;68253;52.506;5.486;2023-08-20T14:43:14;4.60;;;0.60;;
78875;SDS011;68253;52.506;5.486;2023-08-20T14:45:41;6.20;;;0.80;;
78875;SDS011;68253;52.506;5.486;2023-08-20T14:48:07;5.68;;;0.75;;
78875;SDS011;68253;52.506;5.486;2023-08-20T14:50:34;5.85;;;0.80;;
78875;SDS011;68253;52.506;5.486;2023-08-20T14:53:00;5.45;;;0.90;;
78875;SDS011;68253;52.506;5.486;2023-08-20T14:55:26;4.95;;;0.63;;
78875;SDS011;68253;52.506;5.486;2023-08-20T14:57:52;6.20;;;0.60;;
78875;SDS011;68253;52.506;5.486;2023-08-20T15:00:19;5.13;;;0.80;;
78875;SDS011;68253;52.506;5.486;2023-08-20T15:02:49;5.63;;;0.73;;
78875;SDS011;68253;52.506;5.486;2023-08-20T15:05:15;5.82;;;0.75;;
78875;SDS011;68253;52.506;5.486;2023-08-20T15:07:42;7.07;;;0.90;;